Time;durP1;ratioP1;P1;durP2;ratioP2;P2;SDS_P1;SDS_P2;PMS_P1;PMS_P2;Temp;Humidity;BMP_temperature;BMP_pressure;BME280_temperature;BME280_humidity;BME280_pressure;Samples;Min_cycle;Max_cycle;Signal;HPM_P1;HPM_P2
2022/12/12 00:01:20;;;;;;;23.43;11.83;;;2.80;99.90;;;;;;7400121;19;20146;-81
2022/12/12 00:03:46;;;;;;;19.57;11.87;;;3.00;99.90;;;;;;7400775;19;20134;-79
2022/12/12 00:06:12;;;;;;;25.70;12.67;;;3.20;99.90;;;;;;7397489;19;20144;-79
2022/12/12 00:08:41;;;;;;;19.03;11.00;;;3.20;99.90;;;;;;7399459;19;20146;-78
2022/12/12 00:11:07;;;;;;;24.63;12.63;;;3.20;99.90;;;;;;7397619;19;20146;-79
2022/12/12 00:13:33;;;;;;;21.27;12.20;;;3.20;99.90;;;;;;7400683;19;20168;-78
2022/12/12 00:15:59;;;;;;;24.87;13.53;;;3.20;99.90;;;;;;7399819;19;20720;-79
2022/12/12 00:18:25;;;;;;;24.10;12.63;;;3.20;99.90;;;;;;7397571;19;20601;-78
2022/12/12 00:20:55;;;;;;;23.63;12.73;;;3.20;99.90;;;;;;7398458;19;20141;-79
2022/12/12 00:23:25;;;;;;;21.63;12.07;;;3.10;99.90;;;;;;7397994;19;20150;-78
2022/12/12 00:26:00;;;;;;;24.90;12.37;;;3.20;99.90;;;;;;7395182;19;20134;-80
2022/12/12 00:28:27;;;;;;;22.03;11.53;;;3.30;99.90;;;;;;7400782;19;20138;-79
2022/12/12 00:30:53;;;;;;;20.67;11.97;;;3.20;99.90;;;;;;7399781;19;20145;-79
2022/12/12 00:33:19;;;;;;;22.00;12.37;;;3.30;99.90;;;;;;7395824;19;20150;-79
2022/12/12 00:35:49;;;;;;;22.90;11.40;;;3.30;99.90;;;;;;7397481;19;20591;-79
2022/12/12 00:38:16;;;;;;;20.17;11.00;;;3.20;99.90;;;;;;7397581;19;20146;-80
2022/12/12 00:40:42;;;;;;;20.47;11.23;;;3.20;99.90;;;;;;7397459;19;20127;-79
2022/12/12 00:43:08;;;;;;;19.97;11.40;;;3.10;99.90;;;;;;7397193;19;20605;-81
2022/12/12 00:45:36;;;;;;;16.97;9.97;;;3.20;99.90;;;;;;7399252;19;20138;-78
2022/12/12 00:48:02;;;;;;;20.53;10.30;;;3.20;99.90;;;;;;7396452;19;20298;-79
2022/12/12 00:50:28;;;;;;;18.50;10.83;;;3.10;99.90;;;;;;7397650;19;20170;-79
2022/12/12 00:52:55;;;;;;;18.20;10.80;;;3.10;99.90;;;;;;7396240;19;20154;-80
2022/12/12 00:55:22;;;;;;;17.63;10.13;;;3.20;99.90;;;;;;7394730;19;20518;-80
2022/12/12 00:57:48;;;;;;;21.33;10.97;;;3.20;99.90;;;;;;7395092;19;20233;-80
2022/12/12 01:00:15;;;;;;;19.57;10.60;;;3.20;99.90;;;;;;7396302;19;20135;-80
2022/12/12 01:02:41;;;;;;;16.67;9.33;;;3.20;99.90;;;;;;7395997;19;20139;-80
2022/12/12 01:05:07;;;;;;;20.97;10.43;;;3.30;99.90;;;;;;7396844;19;20135;-80
2022/12/12 01:07:33;;;;;;;17.17;9.50;;;3.20;99.90;;;;;;7397756;19;20134;-80
2022/12/12 01:09:59;;;;;;;16.50;9.83;;;3.20;99.90;;;;;;7396481;19;20214;-80
2022/12/12 01:12:27;;;;;;;18.77;9.93;;;3.20;99.90;;;;;;7393619;19;20158;-80
2022/12/12 01:14:54;;;;;;;20.80;11.47;;;3.10;99.90;;;;;;7397746;19;20131;-79
2022/12/12 01:17:19;;;;;;;17.20;10.07;;;3.10;99.90;;;;;;7393695;19;20206;-78
2022/12/12 01:19:45;;;;;;;16.43;9.87;;;3.20;99.90;;;;;;7396980;19;20177;-79
2022/12/12 01:22:11;;;;;;;19.17;10.80;;;3.00;99.90;;;;;;7396079;19;20138;-80
2022/12/12 01:24:37;;;;;;;17.33;9.63;;;3.10;99.90;;;;;;7394336;19;20146;-79
2022/12/12 01:27:03;;;;;;;18.47;10.03;;;3.10;99.90;;;;;;7395708;19;20154;-81
2022/12/12 01:29:31;;;;;;;17.90;9.13;;;3.20;99.90;;;;;;7394353;19;20143;-79
2022/12/12 01:31:57;;;;;;;17.97;9.80;;;3.10;99.90;;;;;;7394750;19;20479;-79
2022/12/12 01:34:23;;;;;;;19.37;10.27;;;3.10;99.90;;;;;;7396799;19;20221;-79
2022/12/12 01:36:48;;;;;;;17.83;10.10;;;3.10;99.90;;;;;;7396621;19;20832;-80
2022/12/12 01:39:14;;;;;;;17.93;9.13;;;3.10;99.90;;;;;;7395469;19;20141;-79
2022/12/12 01:41:42;;;;;;;17.97;9.30;;;3.10;99.90;;;;;;7395319;19;20205;-80
2022/12/12 01:44:57;;;;;;;16.93;9.70;;;3.10;99.90;;;;;;7395944;19;20142;-79
2022/12/12 01:47:24;;;;;;;17.77;9.50;;;3.10;99.90;;;;;;7393631;19;20173;-80
2022/12/12 01:50:01;;;;;;;16.70;9.70;;;3.20;99.90;;;;;;7394100;19;20146;-79
2022/12/12 01:52:50;;;;;;;16.00;9.33;;;3.20;99.90;;;;;;7394971;19;20142;-78
2022/12/12 01:55:21;;;;;;;13.43;7.77;;;3.10;99.90;;;;;;7394193;19;20174;-79
2022/12/12 01:57:50;;;;;;;15.70;8.87;;;3.10;99.90;;;;;;7392957;19;20162;-79
2022/12/12 02:00:16;;;;;;;15.67;9.00;;;3.10;99.90;;;;;;7397165;19;20142;-79
2022/12/12 02:02:45;;;;;;;15.67;8.57;;;3.00;99.90;;;;;;7395172;19;20169;-80
2022/12/12 02:05:32;;;;;;;18.43;9.60;;;3.20;99.90;;;;;;7391140;19;20142;-79
2022/12/12 02:08:00;;;;;;;16.87;9.53;;;3.00;99.90;;;;;;7392976;19;20150;-79
2022/12/12 02:10:26;;;;;;;14.73;8.43;;;3.00;99.90;;;;;;7391448;19;20182;-79
2022/12/12 02:13:05;;;;;;;15.23;9.00;;;2.90;99.90;;;;;;7389284;19;20135;-79
2022/12/12 02:15:56;;;;;;;16.60;9.37;;;2.90;99.90;;;;;;7393986;19;20142;-79
2022/12/12 02:18:50;;;;;;;15.43;8.37;;;3.00;99.90;;;;;;7393478;19;20227;-80
2022/12/12 02:21:29;;;;;;;16.67;8.67;;;2.80;99.90;;;;;;7390862;19;20234;-79
2022/12/12 02:24:32;;;;;;;18.73;10.10;;;2.90;99.90;;;;;;7393795;19;20148;-79
2022/12/12 02:27:19;;;;;;;16.10;8.50;;;2.80;99.90;;;;;;7392915;19;20474;-80
2022/12/12 02:30:23;;;;;;;14.83;8.50;;;2.80;99.90;;;;;;7390252;19;20135;-80
2022/12/12 02:33:02;;;;;;;15.07;8.40;;;2.90;99.90;;;;;;7390309;19;20150;-80
2022/12/12 02:35:44;;;;;;;14.80;8.60;;;3.00;99.90;;;;;;7388974;19;20134;-80
2022/12/12 02:38:21;;;;;;;14.53;8.23;;;2.90;99.90;;;;;;7389833;19;20159;-79
2022/12/12 02:41:07;;;;;;;16.23;9.27;;;2.80;99.90;;;;;;7392600;19;20146;-79
2022/12/12 02:43:52;;;;;;;14.63;8.13;;;2.80;99.90;;;;;;7390765;19;20150;-78
2022/12/12 02:46:49;;;;;;;16.20;8.47;;;2.70;99.90;;;;;;7389593;19;20130;-79
2022/12/12 02:49:29;;;;;;;18.07;8.70;;;2.60;99.90;;;;;;7395137;19;20154;-80
2022/12/12 02:51:58;;;;;;;20.47;9.13;;;2.70;99.90;;;;;;7397847;19;20135;-80
2022/12/12 02:54:24;;;;;;;16.90;9.57;;;2.50;99.90;;;;;;7397710;19;20150;-79
2022/12/12 02:56:57;;;;;;;17.33;8.33;;;2.50;99.90;;;;;;7396660;19;20571;-79
2022/12/12 02:59:31;;;;;;;14.73;8.23;;;2.50;99.90;;;;;;7396769;19;20230;-79
2022/12/12 03:02:23;;;;;;;16.73;8.67;;;2.50;99.90;;;;;;7397733;19;20155;-79
2022/12/12 03:08:00;;;;;;;15.20;8.77;;;2.70;99.90;;;;;;7399957;19;20143;-78
2022/12/12 03:10:41;;;;;;;16.00;8.30;;;2.60;99.90;;;;;;7398069;19;20146;-79
2022/12/12 03:13:19;;;;;;;16.37;8.43;;;2.70;99.90;;;;;;7396697;19;20146;-78
2022/12/12 03:16:05;;;;;;;16.87;8.60;;;2.60;99.90;;;;;;7397235;19;20604;-79
2022/12/12 03:19:07;;;;;;;16.40;8.73;;;2.60;99.90;;;;;;7399092;19;20622;-80
2022/12/12 03:21:39;;;;;;;16.57;8.70;;;2.50;99.90;;;;;;7397914;19;20146;-80
2022/12/12 03:24:29;;;;;;;15.87;9.20;;;2.50;99.90;;;;;;7395929;19;20134;-80
2022/12/12 03:26:58;;;;;;;18.43;8.70;;;2.50;99.90;;;;;;7399546;19;20155;-79
2022/12/12 03:29:29;;;;;;;16.90;8.97;;;2.40;99.90;;;;;;7399139;19;20155;-80
2022/12/12 03:32:02;;;;;;;19.00;9.40;;;2.50;99.90;;;;;;7397597;19;20138;-80
2022/12/12 03:34:36;;;;;;;16.43;9.10;;;2.50;99.90;;;;;;7397201;19;20141;-79
2022/12/12 03:37:09;;;;;;;17.37;10.13;;;2.60;99.90;;;;;;7399756;19;20153;-80
2022/12/12 03:39:41;;;;;;;19.53;9.70;;;2.50;99.90;;;;;;7399393;19;20492;-80
2022/12/12 03:42:35;;;;;;;19.07;10.30;;;2.40;99.90;;;;;;7400200;19;20759;-80
2022/12/12 03:45:13;;;;;;;18.13;10.23;;;2.30;99.90;;;;;;7400141;19;20146;-80
2022/12/12 03:48:11;;;;;;;18.33;10.13;;;2.20;99.90;;;;;;7399656;19;20236;-79
2022/12/12 03:50:44;;;;;;;19.57;9.90;;;2.30;99.90;;;;;;7394870;19;20167;-80
2022/12/12 03:53:19;;;;;;;16.77;10.17;;;2.40;99.90;;;;;;7398463;19;20149;-80
2022/12/12 03:56:02;;;;;;;18.53;9.83;;;2.30;99.90;;;;;;7395664;19;20154;-79
2022/12/12 03:58:41;;;;;;;20.40;10.20;;;2.20;99.90;;;;;;7397440;19;20165;-80
2022/12/12 04:01:10;;;;;;;17.37;9.70;;;2.20;99.90;;;;;;7396140;19;20222;-80
2022/12/12 04:04:05;;;;;;;18.80;10.37;;;2.10;99.90;;;;;;7394871;19;20154;-80
2022/12/12 04:06:35;;;;;;;19.60;10.73;;;2.20;99.90;;;;;;7395653;19;20155;-81
2022/12/12 04:15:04;;;;;;;19.13;10.03;;;2.10;99.90;;;;;;7395403;19;20150;-79
2022/12/12 04:17:52;;;;;;;20.23;10.13;;;2.10;99.90;;;;;;7393243;19;20169;-80
2022/12/12 04:23:52;;;;;;;19.07;10.47;;;2.10;99.90;;;;;;7394665;19;20151;-81
2022/12/12 04:26:39;;;;;;;22.10;10.80;;;2.10;99.90;;;;;;7393777;19;20285;-80
2022/12/12 04:29:25;;;;;;;18.60;10.67;;;2.10;99.90;;;;;;7393756;19;20150;-81
2022/12/12 04:31:57;;;;;;;19.83;10.73;;;2.10;99.90;;;;;;7394583;19;20158;-79
2022/12/12 04:34:35;;;;;;;18.30;10.77;;;2.10;99.90;;;;;;7395428;19;20622;-79
2022/12/12 04:37:03;;;;;;;19.17;10.93;;;2.10;99.90;;;;;;7393074;19;20489;-79
2022/12/12 04:39:30;;;;;;;20.97;10.70;;;2.10;99.90;;;;;;7392287;19;20143;-79
2022/12/12 04:41:59;;;;;;;21.23;11.37;;;2.10;99.90;;;;;;7393696;19;20135;-80
2022/12/12 04:44:28;;;;;;;24.40;11.57;;;2.10;99.90;;;;;;7393530;19;20155;-79
2022/12/12 04:46:55;;;;;;;22.70;11.07;;;2.10;99.90;;;;;;7394304;19;20154;-79
2022/12/12 04:49:26;;;;;;;19.73;11.00;;;2.00;99.90;;;;;;7393937;19;20654;-79
2022/12/12 04:51:58;;;;;;;21.67;12.20;;;2.10;99.90;;;;;;7394325;19;20225;-79
2022/12/12 04:54:38;;;;;;;19.47;11.10;;;2.10;99.90;;;;;;7394382;19;20165;-79
2022/12/12 04:57:09;;;;;;;24.83;11.33;;;2.10;99.90;;;;;;7392720;19;20165;-79
2022/12/12 04:59:35;;;;;;;20.67;11.27;;;2.10;99.90;;;;;;7394076;19;20135;-79
2022/12/12 05:02:22;;;;;;;19.47;10.83;;;2.10;99.90;;;;;;7394108;19;20156;-79
2022/12/12 05:05:06;;;;;;;20.13;10.53;;;2.30;99.90;;;;;;7393748;19;20156;-79
2022/12/12 05:07:37;;;;;;;17.20;10.07;;;2.30;99.90;;;;;;7394826;19;20143;-79
2022/12/12 05:10:06;;;;;;;20.97;12.13;;;2.30;99.90;;;;;;7391759;19;20154;-79
2022/12/12 05:12:46;;;;;;;19.57;11.47;;;2.10;99.90;;;;;;7393917;19;20142;-79
2022/12/12 05:15:13;;;;;;;19.57;10.87;;;2.00;99.90;;;;;;7392607;19;20168;-79
2022/12/12 05:18:06;;;;;;;21.17;11.63;;;2.10;99.90;;;;;;7391804;19;20151;-78
2022/12/12 05:20:32;;;;;;;26.50;12.00;;;2.30;99.90;;;;;;7390208;19;20158;-77
2022/12/12 05:22:58;;;;;;;21.37;12.00;;;2.40;99.90;;;;;;7392148;19;20151;-78
2022/12/12 05:25:24;;;;;;;20.27;11.30;;;2.40;99.90;;;;;;7392169;19;20514;-79
2022/12/12 05:27:50;;;;;;;23.00;12.60;;;2.40;99.90;;;;;;7394797;19;20578;-79
2022/12/12 05:30:16;;;;;;;19.97;11.97;;;2.20;99.90;;;;;;7392829;19;20134;-79
2022/12/12 05:32:42;;;;;;;19.27;11.30;;;2.20;99.90;;;;;;7392131;19;20151;-80
2022/12/12 05:35:08;;;;;;;22.97;12.23;;;2.30;99.90;;;;;;7392597;19;20130;-79
2022/12/12 05:37:34;;;;;;;23.07;11.70;;;2.20;99.90;;;;;;7389428;19;20130;-79
2022/12/12 05:40:00;;;;;;;20.33;12.23;;;2.10;99.90;;;;;;7393442;19;20137;-79
2022/12/12 05:42:26;;;;;;;21.37;12.37;;;2.10;99.90;;;;;;7391518;19;20143;-79
2022/12/12 05:44:51;;;;;;;22.80;11.10;;;2.10;99.90;;;;;;7393259;19;20214;-80
2022/12/12 05:47:17;;;;;;;22.13;11.87;;;2.20;99.90;;;;;;7391751;19;20135;-78
2022/12/12 05:49:44;;;;;;;22.97;12.13;;;2.20;99.90;;;;;;7392757;19;20143;-79
2022/12/12 05:52:12;;;;;;;21.37;11.10;;;2.00;99.90;;;;;;7389353;19;20142;-79
2022/12/12 05:54:39;;;;;;;19.40;11.43;;;2.20;99.90;;;;;;7392993;19;20158;-80
2022/12/12 05:57:05;;;;;;;22.17;12.20;;;2.30;99.90;;;;;;7390992;19;20166;-81
2022/12/12 05:59:34;;;;;;;25.43;12.57;;;2.40;99.90;;;;;;7393163;19;20158;-80
2022/12/12 06:02:00;;;;;;;19.43;11.77;;;2.20;99.90;;;;;;7391459;19;20177;-81
2022/12/12 06:04:26;;;;;;;17.37;10.83;;;2.30;99.90;;;;;;7393708;19;20165;-81
2022/12/12 06:06:52;;;;;;;21.23;11.97;;;2.20;99.90;;;;;;7391547;19;20502;-81
2022/12/12 06:09:19;;;;;;;22.10;11.97;;;2.40;99.90;;;;;;7392721;19;20141;-79
2022/12/12 06:11:44;;;;;;;21.77;12.00;;;2.40;99.90;;;;;;7392913;19;20143;-80
2022/12/12 06:14:10;;;;;;;19.90;11.43;;;2.40;99.90;;;;;;7390734;19;20150;-81
2022/12/12 06:16:36;;;;;;;20.90;11.77;;;2.20;99.90;;;;;;7388662;19;20166;-79
2022/12/12 06:19:03;;;;;;;21.03;11.83;;;2.20;99.90;;;;;;7389969;19;20171;-79
2022/12/12 06:21:29;;;;;;;22.93;11.87;;;2.10;99.90;;;;;;7391413;19;20496;-81
2022/12/12 06:23:55;;;;;;;23.17;12.03;;;2.20;99.90;;;;;;7398729;19;20317;-80
2022/12/12 06:26:21;;;;;;;21.77;11.97;;;2.20;99.90;;;;;;7399465;19;20229;-80
2022/12/12 06:28:47;;;;;;;24.73;12.97;;;2.10;99.90;;;;;;7397247;19;20142;-79
2022/12/12 06:31:16;;;;;;;24.17;14.07;;;2.10;99.90;;;;;;7396804;19;20634;-80
2022/12/12 06:33:42;;;;;;;24.70;13.13;;;2.10;99.90;;;;;;7399608;19;20476;-78
2022/12/12 06:36:15;;;;;;;23.83;13.73;;;2.10;99.90;;;;;;7397902;19;20139;-81
2022/12/12 06:38:41;;;;;;;23.07;12.90;;;2.20;99.90;;;;;;7398284;19;20174;-79
2022/12/12 06:41:11;;;;;;;23.47;12.83;;;2.30;99.90;;;;;;7397070;19;20130;-80
2022/12/12 06:43:37;;;;;;;23.57;12.53;;;2.20;99.90;;;;;;7398524;19;20166;-80
2022/12/12 06:46:07;;;;;;;19.93;12.07;;;2.20;99.90;;;;;;7397125;19;20145;-80
2022/12/12 06:48:34;;;;;;;21.17;11.97;;;2.20;99.90;;;;;;7398734;19;20213;-80
2022/12/12 06:51:05;;;;;;;23.33;12.73;;;2.20;99.90;;;;;;7396999;19;20180;-80
2022/12/12 06:53:31;;;;;;;25.97;12.60;;;2.20;99.90;;;;;;7396628;19;20234;-79
2022/12/12 06:55:58;;;;;;;26.47;12.63;;;2.30;99.90;;;;;;7402352;19;20147;-79
2022/12/12 06:58:23;;;;;;;20.13;11.63;;;2.30;99.90;;;;;;7396329;19;20143;-78
2022/12/12 07:00:51;;;;;;;22.73;13.67;;;2.30;99.90;;;;;;7395711;19;20376;-76
2022/12/12 07:03:17;;;;;;;23.53;12.83;;;2.30;99.90;;;;;;7399374;19;20143;-78
2022/12/12 07:05:46;;;;;;;25.40;13.10;;;2.30;99.90;;;;;;7401228;19;20563;-77
2022/12/12 07:08:14;;;;;;;21.10;11.73;;;2.30;99.90;;;;;;7401766;19;20142;-78
2022/12/12 07:10:40;;;;;;;25.67;13.37;;;2.20;99.90;;;;;;7401487;19;20165;-77
2022/12/12 07:13:06;;;;;;;23.30;12.53;;;2.40;99.90;;;;;;7397992;19;20580;-74
2022/12/12 07:15:31;;;;;;;20.73;11.90;;;2.20;99.90;;;;;;7401248;19;20131;-77
2022/12/12 07:17:57;;;;;;;24.20;13.00;;;2.20;99.90;;;;;;7405012;19;20202;-77
2022/12/12 07:20:24;;;;;;;28.23;14.87;;;2.20;99.90;;;;;;7401115;19;20572;-77
2022/12/12 07:22:49;;;;;;;25.53;12.93;;;2.20;99.90;;;;;;7399641;19;20138;-78
2022/12/12 07:25:15;;;;;;;22.40;11.57;;;2.20;99.90;;;;;;7397012;19;20123;-78
2022/12/12 07:27:41;;;;;;;22.40;12.47;;;2.20;99.90;;;;;;7397387;19;20119;-77
2022/12/12 07:30:07;;;;;;;20.33;12.37;;;2.00;99.90;;;;;;7398198;19;20131;-77
2022/12/12 07:32:33;;;;;;;22.90;12.03;;;2.00;99.90;;;;;;7394160;19;20627;-77
2022/12/12 07:34:59;;;;;;;18.67;11.37;;;2.20;99.90;;;;;;7394480;19;20625;-81
2022/12/12 07:37:25;;;;;;;23.10;11.63;;;2.20;99.90;;;;;;7397176;19;20127;-79
2022/12/12 07:39:52;;;;;;;22.07;12.33;;;2.10;99.90;;;;;;7398861;19;20205;-80
2022/12/12 07:42:18;;;;;;;20.27;11.97;;;2.20;99.90;;;;;;7397471;19;20467;-79
2022/12/12 07:44:46;;;;;;;23.10;12.90;;;2.20;99.90;;;;;;7397198;19;20146;-79
2022/12/12 07:47:12;;;;;;;19.97;11.70;;;2.10;99.90;;;;;;7405222;19;20127;-78
2022/12/12 07:49:38;;;;;;;19.27;11.63;;;2.10;99.90;;;;;;7399927;19;20130;-79
2022/12/12 07:52:04;;;;;;;21.63;11.50;;;2.10;99.90;;;;;;7399819;19;20147;-78
2022/12/12 07:54:29;;;;;;;21.00;11.90;;;2.00;99.90;;;;;;7399277;19;20151;-79
2022/12/12 07:56:58;;;;;;;20.10;11.27;;;2.10;99.90;;;;;;7400240;19;20149;-79
2022/12/12 07:59:24;;;;;;;20.03;11.63;;;2.20;99.90;;;;;;7399742;19;20148;-78
2022/12/12 08:01:49;;;;;;;19.70;12.30;;;2.10;99.90;;;;;;7401689;19;20141;-79
2022/12/12 08:04:31;;;;;;;23.63;15.30;;;2.20;99.90;;;;;;7398178;19;20457;-80
2022/12/12 08:06:57;;;;;;;21.13;12.33;;;2.10;99.90;;;;;;7399294;19;20143;-79
2022/12/12 08:09:24;;;;;;;23.27;12.23;;;2.20;99.90;;;;;;7397490;19;20742;-80
2022/12/12 08:11:50;;;;;;;23.33;12.13;;;2.20;99.90;;;;;;7395339;19;20146;-79
2022/12/12 08:14:16;;;;;;;23.80;12.00;;;2.30;99.90;;;;;;7397550;19;20161;-79
2022/12/12 08:16:41;;;;;;;20.07;11.53;;;1.90;99.90;;;;;;7395938;19;20147;-79
2022/12/12 08:19:08;;;;;;;25.00;12.23;;;2.10;99.90;;;;;;7396001;19;20261;-80
2022/12/12 08:21:34;;;;;;;24.10;11.87;;;2.30;99.90;;;;;;7397014;19;20155;-79
2022/12/12 08:24:01;;;;;;;24.93;12.53;;;2.30;99.90;;;;;;7396315;19;20135;-79
2022/12/12 08:26:29;;;;;;;22.73;11.60;;;2.30;99.90;;;;;;7399955;19;20441;-81
2022/12/12 08:28:56;;;;;;;21.87;11.57;;;2.30;99.90;;;;;;7395813;19;20158;-78
2022/12/12 08:31:25;;;;;;;25.70;10.97;;;2.40;99.90;;;;;;7397283;19;20162;-78
2022/12/12 08:33:52;;;;;;;22.40;11.57;;;2.50;99.90;;;;;;7397112;19;20517;-78
2022/12/12 08:36:23;;;;;;;21.00;11.73;;;2.50;99.90;;;;;;7398120;19;20146;-78
2022/12/12 08:38:49;;;;;;;24.40;12.07;;;2.50;99.90;;;;;;7398128;19;20146;-78
2022/12/12 08:41:16;;;;;;;19.77;11.03;;;2.50;99.90;;;;;;7400638;19;20134;-78
2022/12/12 08:43:45;;;;;;;18.77;11.43;;;2.70;99.90;;;;;;7398406;19;20158;-78
2022/12/12 08:46:12;;;;;;;21.57;11.70;;;2.60;99.90;;;;;;7394786;19;20134;-78
2022/12/12 08:48:39;;;;;;;16.53;10.27;;;2.40;99.90;;;;;;7395810;19;20179;-78
2022/12/12 08:51:04;;;;;;;20.57;11.33;;;2.50;99.90;;;;;;7402145;19;20255;-78
2022/12/12 08:53:30;;;;;;;19.47;11.10;;;2.50;99.90;;;;;;7397745;19;20618;-80
2022/12/12 08:55:59;;;;;;;28.93;15.73;;;2.60;99.90;;;;;;7404009;19;20170;-80
2022/12/12 08:58:26;;;;;;;25.57;11.90;;;2.60;99.90;;;;;;7394875;19;20145;-80
2022/12/12 09:00:53;;;;;;;20.00;12.03;;;2.70;99.90;;;;;;7404105;19;20139;-78
2022/12/12 09:03:19;;;;;;;22.00;12.67;;;2.60;99.90;;;;;;7400647;19;20166;-79
2022/12/12 09:05:45;;;;;;;18.40;11.63;;;2.60;99.90;;;;;;7395054;19;20150;-79
2022/12/12 09:08:12;;;;;;;23.03;12.70;;;2.70;99.90;;;;;;7396363;19;20478;-79
2022/12/12 09:10:38;;;;;;;20.83;11.43;;;2.70;99.90;;;;;;7396935;19;20167;-80
2022/12/12 09:13:06;;;;;;;21.35;12.80;;;2.70;99.90;;;;;;7394542;19;20374;-78
2022/12/12 09:15:36;;;;;;;19.53;11.93;;;2.70;99.90;;;;;;7398026;19;20135;-79
2022/12/12 09:18:02;;;;;;;22.63;11.67;;;2.60;99.90;;;;;;7395194;19;20139;-80
2022/12/12 09:20:28;;;;;;;19.67;10.60;;;2.60;99.90;;;;;;7392635;19;20151;-83
2022/12/12 09:22:54;;;;;;;22.93;12.00;;;2.60;99.90;;;;;;7395331;19;20572;-77
2022/12/12 09:25:20;;;;;;;19.23;10.63;;;2.80;99.90;;;;;;7395921;19;20499;-79
2022/12/12 09:27:47;;;;;;;17.90;10.87;;;2.80;99.90;;;;;;7397161;19;20146;-84
2022/12/12 09:30:13;;;;;;;19.20;11.60;;;2.90;99.90;;;;;;7395920;19;20535;-80
2022/12/12 09:32:40;;;;;;;19.53;10.00;;;2.80;99.90;;;;;;7395997;19;20157;-77
2022/12/12 09:35:06;;;;;;;18.90;11.27;;;3.00;99.90;;;;;;7395758;19;20155;-79
2022/12/12 09:37:32;;;;;;;30.20;16.17;;;2.90;99.90;;;;;;7393802;19;20138;-79
2022/12/12 09:39:58;;;;;;;23.47;11.87;;;2.80;99.90;;;;;;7394945;19;20479;-78
2022/12/12 09:42:26;;;;;;;18.03;10.73;;;2.90;99.90;;;;;;7393333;19;20135;-78
2022/12/12 09:44:59;;;;;;;21.97;11.13;;;2.90;99.90;;;;;;7394594;19;20146;-79
2022/12/12 09:47:56;;;;;;;16.40;9.80;;;2.90;99.90;;;;;;7392587;19;20632;-78
2022/12/12 09:50:43;;;;;;;21.87;10.53;;;3.00;99.90;;;;;;7393631;19;20585;-78
2022/12/12 09:53:12;;;;;;;17.23;10.60;;;2.90;99.90;;;;;;7393498;19;20138;-76
2022/12/12 09:55:50;;;;;;;17.97;10.97;;;3.00;99.90;;;;;;7390869;19;20150;-77
2022/12/12 09:58:25;;;;;;;19.57;11.17;;;3.00;99.90;;;;;;7397351;19;20138;-78
2022/12/12 10:00:59;;;;;;;20.00;10.47;;;3.00;99.90;;;;;;7398869;19;20167;-79
2022/12/12 10:03:42;;;;;;;21.10;11.17;;;2.90;99.90;;;;;;7400631;19;20138;-77
2022/12/12 10:06:11;;;;;;;17.27;10.30;;;3.20;99.90;;;;;;7398609;19;20130;-77
2022/12/12 10:08:49;;;;;;;17.13;10.77;;;3.20;99.90;;;;;;7404419;19;20142;-77
2022/12/12 10:14:17;;;;;;;18.13;10.80;;;3.30;99.90;;;;;;7400292;19;20580;-78
2022/12/12 10:16:44;;;;;;;20.50;10.20;;;3.30;99.90;;;;;;7400806;19;20139;-77
2022/12/12 10:19:27;;;;;;;17.17;9.93;;;3.20;99.90;;;;;;7398534;19;20237;-73
2022/12/12 10:22:01;;;;;;;23.60;10.90;;;3.00;99.90;;;;;;7399537;19;20138;-77
2022/12/12 10:24:40;;;;;;;20.53;10.70;;;3.10;99.90;;;;;;7398838;19;20874;-77
2022/12/12 10:27:12;;;;;;;22.83;12.80;;;3.20;99.90;;;;;;7399474;19;20150;-77
2022/12/12 10:29:48;;;;;;;19.43;11.50;;;3.40;99.90;;;;;;7400988;19;20154;-79
2022/12/12 10:32:22;;;;;;;25.63;12.10;;;3.40;99.90;;;;;;7399250;19;20171;-78
2022/12/12 10:35:18;;;;;;;23.20;11.97;;;3.40;99.90;;;;;;7401771;19;20252;-79
2022/12/12 10:37:44;;;;;;;19.00;10.47;;;3.40;99.90;;;;;;7397287;19;20138;-79
2022/12/12 10:40:34;;;;;;;25.90;12.00;;;3.40;99.90;;;;;;7401477;19;20486;-77
2022/12/12 10:43:13;;;;;;;18.40;10.80;;;3.40;99.90;;;;;;7412868;19;20149;-77
2022/12/12 10:46:07;;;;;;;21.70;11.53;;;3.30;99.90;;;;;;7406873;19;20142;-79
2022/12/12 10:48:33;;;;;;;21.20;11.13;;;3.20;99.90;;;;;;7400416;19;20584;-79
2022/12/12 10:51:05;;;;;;;19.97;11.60;;;3.30;99.90;;;;;;7401048;19;20153;-78
2022/12/12 10:53:32;;;;;;;27.83;12.43;;;3.30;99.90;;;;;;7400865;19;20138;-77
2022/12/12 10:56:02;;;;;;;19.67;11.10;;;3.30;99.90;;;;;;7403017;19;20520;-78
2022/12/12 10:58:39;;;;;;;18.20;11.73;;;3.40;99.90;;;;;;7396714;19;20163;-78
2022/12/12 11:01:20;;;;;;;20.13;11.43;;;3.20;99.90;;;;;;7399885;19;20844;-78
2022/12/12 11:03:50;;;;;;;18.50;10.67;;;3.30;99.90;;;;;;7399611;19;20154;-78
2022/12/12 11:06:42;;;;;;;22.67;10.80;;;3.40;99.90;;;;;;7397927;19;20143;-77
2022/12/12 11:09:17;;;;;;;16.00;10.13;;;3.60;99.90;;;;;;7397280;19;20174;-78
2022/12/12 11:12:08;;;;;;;20.90;11.87;;;3.60;99.90;;;;;;7399774;19;20213;-79
2022/12/12 11:14:37;;;;;;;23.07;11.73;;;3.40;99.90;;;;;;7402189;19;20147;-78
2022/12/12 11:17:29;;;;;;;22.15;11.65;;;3.50;99.90;;;;;;7399292;19;20398;-79
2022/12/12 11:19:57;;;;;;;16.47;9.93;;;3.50;99.90;;;;;;7394687;19;20143;-79
2022/12/12 11:22:25;;;;;;;17.63;10.50;;;3.60;99.90;;;;;;7406478;19;20139;-78
2022/12/12 11:24:51;;;;;;;23.70;10.37;;;3.50;99.90;;;;;;7400964;19;20595;-79
2022/12/12 11:27:27;;;;;;;19.67;10.33;;;3.60;99.90;;;;;;7399735;19;20151;-79
2022/12/12 11:30:02;;;;;;;18.60;10.03;;;3.80;99.90;;;;;;7405646;19;20135;-79
2022/12/12 11:32:39;;;;;;;18.03;9.00;;;3.80;99.90;;;;;;7398477;19;20150;-79
2022/12/12 11:35:20;;;;;;;17.67;9.30;;;4.00;99.90;;;;;;7398541;19;20134;-78
2022/12/12 11:37:50;;;;;;;17.70;9.10;;;4.10;99.90;;;;;;7398741;19;20147;-78
2022/12/12 11:40:24;;;;;;;17.33;9.17;;;4.10;99.90;;;;;;7399214;19;20155;-81
2022/12/12 11:42:50;;;;;;;16.43;9.17;;;4.10;99.90;;;;;;7400934;19;20146;-79
2022/12/12 11:45:16;;;;;;;24.60;9.43;;;4.10;99.90;;;;;;7400880;19;20145;-90
2022/12/12 11:47:45;;;;;;;16.43;9.00;;;4.10;99.90;;;;;;7396429;19;20596;-79
2022/12/12 11:50:20;;;;;;;14.77;8.77;;;4.10;99.90;;;;;;7394791;19;20615;-81
2022/12/12 11:52:49;;;;;;;12.77;8.10;;;4.20;99.90;;;;;;7392316;19;20260;-77
2022/12/12 11:55:19;;;;;;;15.17;8.23;;;4.30;99.90;;;;;;7393631;19;20142;-79
2022/12/12 11:57:45;;;;;;;14.77;7.93;;;4.30;99.90;;;;;;7388771;19;20134;-79
2022/12/12 12:00:20;;;;;;;14.70;8.37;;;4.30;99.90;;;;;;7395094;19;20171;-81
2022/12/12 12:03:04;;;;;;;15.67;8.20;;;4.40;99.90;;;;;;7395396;19;20162;-80
2022/12/12 12:05:54;;;;;;;14.87;7.70;;;4.50;99.90;;;;;;7393534;19;20143;-80
2022/12/12 12:08:42;;;;;;;11.43;6.67;;;4.60;99.90;;;;;;7393780;19;20139;-81
2022/12/12 12:11:15;;;;;;;10.80;6.60;;;4.60;99.90;;;;;;7394820;19;20146;-80
2022/12/12 12:14:05;;;;;;;12.27;7.53;;;4.60;99.90;;;;;;7393640;19;20150;-80
2022/12/12 12:17:08;;;;;;;12.83;6.80;;;4.50;99.90;;;;;;7391734;19;20138;-80
2022/12/12 12:19:48;;;;;;;13.80;8.60;;;4.40;99.90;;;;;;7399781;19;20146;-78
2022/12/12 12:22:40;;;;;;;12.77;7.97;;;4.40;99.90;;;;;;7392003;19;20190;-79
2022/12/12 12:25:16;;;;;;;12.20;7.53;;;4.20;99.90;;;;;;7391217;19;20137;-80
2022/12/12 12:27:57;;;;;;;16.53;8.83;;;4.40;99.90;;;;;;7390616;19;20162;-79
2022/12/12 12:30:43;;;;;;;16.13;8.97;;;4.40;99.90;;;;;;7391993;19;20225;-79
2022/12/12 12:33:29;;;;;;;15.67;8.33;;;4.50;99.90;;;;;;7393371;19;20146;-79
2022/12/12 12:36:37;;;;;;;16.60;9.37;;;4.50;99.90;;;;;;7402112;19;20146;-78
2022/12/12 12:39:26;;;;;;;17.27;10.20;;;4.10;99.90;;;;;;7392136;19;20617;-81
2022/12/12 12:42:38;;;;;;;17.60;9.30;;;4.40;99.90;;;;;;7392114;19;20214;-80
2022/12/12 12:45:15;;;;;;;16.70;9.63;;;4.40;99.90;;;;;;7390768;19;20134;-81
2022/12/12 12:48:01;;;;;;;21.27;10.00;;;4.50;99.90;;;;;;7393295;19;20497;-79
2022/12/12 12:50:44;;;;;;;17.10;8.50;;;4.50;99.90;;;;;;7391429;19;20143;-79
2022/12/12 12:53:33;;;;;;;13.90;8.43;;;4.60;99.90;;;;;;7391149;19;20146;-80
2022/12/12 12:56:08;;;;;;;17.03;9.50;;;4.60;99.90;;;;;;7391499;19;20150;-79
2022/12/12 12:58:41;;;;;;;17.37;9.03;;;4.60;99.90;;;;;;7391398;19;20130;-80
2022/12/12 13:01:27;;;;;;;14.87;9.03;;;4.30;99.90;;;;;;7392189;19;20151;-80
2022/12/12 13:04:11;;;;;;;15.33;8.60;;;4.10;99.90;;;;;;7391256;19;20479;-82
2022/12/12 13:07:01;;;;;;;14.87;8.73;;;4.00;99.90;;;;;;7391434;19;20146;-81
2022/12/12 13:09:43;;;;;;;14.53;8.33;;;4.20;99.90;;;;;;7392914;19;20142;-81
2022/12/12 13:12:17;;;;;;;22.03;8.57;;;3.90;99.90;;;;;;7388050;19;20191;-81
2022/12/12 13:15:01;;;;;;;15.40;7.73;;;4.00;99.90;;;;;;7394022;19;20135;-83
2022/12/12 13:18:02;;;;;;;14.97;8.17;;;3.90;99.90;;;;;;7390207;19;20134;-81
2022/12/12 13:20:39;;;;;;;16.05;9.20;;;4.50;99.90;;;;;;7386101;19;20409;-78
2022/12/12 13:23:13;;;;;;;15.90;8.87;;;4.50;99.90;;;;;;7390083;19;20130;-79
2022/12/12 13:25:59;;;;;;;12.97;8.63;;;4.50;99.90;;;;;;7390927;19;20146;-77